sensor_id;sensor_type;location;lat;lon;timestamp;P1;durP1;ratioP1;P2;durP2;ratioP2
13566;SDS011;6855;48.112;11.298;2023-04-06T00:00:50;11.97;;;7.97;;
13566;SDS011;6855;48.112;11.298;2023-04-06T00:03:18;12.13;;;6.97;;
13566;SDS011;6855;48.112;11.298;2023-04-06T00:05:46;10.87;;;6.90;;
13566;SDS011;6855;48.112;11.298;2023-04-06T00:08:13;13.40;;;6.63;;
13566;SDS011;6855;48.112;11.298;2023-04-06T00:10:42;11.00;;;6.17;;
13566;SDS011;6855;48.112;11.298;2023-04-06T00:13:10;8.77;;;5.30;;
13566;SDS011;6855;48.112;11.298;2023-04-06T00:15:37;9.67;;;5.20;;
13566;SDS011;6855;48.112;11.298;2023-04-06T00:18:05;10.97;;;5.50;;
13566;SDS011;6855;48.112;11.298;2023-04-06T00:20:33;7.27;;;5.07;;
13566;SDS011;6855;48.112;11.298;2023-04-06T00:23:00;11.80;;;5.30;;
13566;SDS011;6855;48.112;11.298;2023-04-06T00:25:27;9.53;;;4.97;;
13566;SDS011;6855;48.112;11.298;2023-04-06T00:27:57;9.47;;;5.17;;
13566;SDS011;6855;48.112;11.298;2023-04-06T00:30:24;7.30;;;4.30;;
13566;SDS011;6855;48.112;11.298;2023-04-06T00:32:51;8.43;;;4.63;;
13566;SDS011;6855;48.112;11.298;2023-04-06T00:35:24;8.17;;;4.80;;
13566;SDS011;6855;48.112;11.298;2023-04-06T00:37:51;6.73;;;4.40;;
13566;SDS011;6855;48.112;11.298;2023-04-06T00:40:18;7.63;;;3.83;;
13566;SDS011;6855;48.112;11.298;2023-04-06T00:42:46;7.50;;;3.87;;
13566;SDS011;6855;48.112;11.298;2023-04-06T00:45:15;6.07;;;3.77;;
13566;SDS011;6855;48.112;11.298;2023-04-06T00:47:42;9.70;;;4.73;;
13566;SDS011;6855;48.112;11.298;2023-04-06T00:50:09;13.70;;;4.00;;
13566;SDS011;6855;48.112;11.298;2023-04-06T00:52:36;7.77;;;4.40;;
13566;SDS011;6855;48.112;11.298;2023-04-06T00:55:04;6.20;;;3.90;;
13566;SDS011;6855;48.112;11.298;2023-04-06T00:57:35;6.83;;;4.20;;
13566;SDS011;6855;48.112;11.298;2023-04-06T01:00:05;6.63;;;4.07;;
13566;SDS011;6855;48.112;11.298;2023-04-06T01:02:35;8.97;;;4.60;;
13566;SDS011;6855;48.112;11.298;2023-04-06T01:05:02;6.23;;;4.40;;
13566;SDS011;6855;48.112;11.298;2023-04-06T01:07:30;5.90;;;3.87;;
13566;SDS011;6855;48.112;11.298;2023-04-06T01:09:59;7.17;;;3.83;;
13566;SDS011;6855;48.112;11.298;2023-04-06T01:12:29;8.00;;;4.43;;
13566;SDS011;6855;48.112;11.298;2023-04-06T01:14:56;9.60;;;4.30;;
13566;SDS011;6855;48.112;11.298;2023-04-06T01:17:24;5.63;;;3.93;;
13566;SDS011;6855;48.112;11.298;2023-04-06T01:19:52;12.00;;;5.07;;
13566;SDS011;6855;48.112;11.298;2023-04-06T01:22:23;9.40;;;5.23;;
13566;SDS011;6855;48.112;11.298;2023-04-06T01:24:51;8.77;;;5.57;;
13566;SDS011;6855;48.112;11.298;2023-04-06T01:27:18;9.37;;;5.10;;
13566;SDS011;6855;48.112;11.298;2023-04-06T01:29:45;10.70;;;5.13;;
13566;SDS011;6855;48.112;11.298;2023-04-06T01:32:13;9.17;;;5.00;;
13566;SDS011;6855;48.112;11.298;2023-04-06T01:34:43;7.20;;;5.10;;
13566;SDS011;6855;48.112;11.298;2023-04-06T01:37:13;7.70;;;4.70;;
13566;SDS011;6855;48.112;11.298;2023-04-06T01:39:43;9.70;;;5.07;;
13566;SDS011;6855;48.112;11.298;2023-04-06T01:42:10;10.50;;;4.83;;
13566;SDS011;6855;48.112;11.298;2023-04-06T01:44:39;6.13;;;3.57;;
13566;SDS011;6855;48.112;11.298;2023-04-06T01:47:07;7.50;;;4.60;;
13566;SDS011;6855;48.112;11.298;2023-04-06T01:49:34;8.23;;;5.13;;
13566;SDS011;6855;48.112;11.298;2023-04-06T01:52:01;7.07;;;4.40;;
13566;SDS011;6855;48.112;11.298;2023-04-06T01:54:29;13.43;;;4.37;;
13566;SDS011;6855;48.112;11.298;2023-04-06T01:56:58;7.83;;;5.10;;
13566;SDS011;6855;48.112;11.298;2023-04-06T01:59:25;7.10;;;4.90;;
13566;SDS011;6855;48.112;11.298;2023-04-06T02:01:53;8.10;;;5.07;;
13566;SDS011;6855;48.112;11.298;2023-04-06T02:04:20;10.90;;;4.30;;
13566;SDS011;6855;48.112;11.298;2023-04-06T02:06:47;6.73;;;4.43;;
13566;SDS011;6855;48.112;11.298;2023-04-06T02:09:15;8.07;;;4.80;;
13566;SDS011;6855;48.112;11.298;2023-04-06T02:11:42;9.90;;;4.47;;
13566;SDS011;6855;48.112;11.298;2023-04-06T02:14:12;6.70;;;4.20;;
13566;SDS011;6855;48.112;11.298;2023-04-06T02:16:40;7.60;;;4.30;;
13566;SDS011;6855;48.112;11.298;2023-04-06T02:19:07;6.20;;;4.20;;
13566;SDS011;6855;48.112;11.298;2023-04-06T02:21:34;7.20;;;5.00;;
13566;SDS011;6855;48.112;11.298;2023-04-06T02:24:02;5.00;;;4.03;;
13566;SDS011;6855;48.112;11.298;2023-04-06T02:26:29;8.23;;;4.20;;
13566;SDS011;6855;48.112;11.298;2023-04-06T02:28:56;6.93;;;3.93;;
13566;SDS011;6855;48.112;11.298;2023-04-06T02:31:25;6.00;;;4.30;;
13566;SDS011;6855;48.112;11.298;2023-04-06T02:33:52;8.37;;;4.53;;
13566;SDS011;6855;48.112;11.298;2023-04-06T02:36:20;7.20;;;4.70;;
13566;SDS011;6855;48.112;11.298;2023-04-06T02:38:47;6.87;;;4.40;;
13566;SDS011;6855;48.112;11.298;2023-04-06T02:41:14;10.60;;;5.07;;
13566;SDS011;6855;48.112;11.298;2023-04-06T02:43:47;5.33;;;3.40;;
13566;SDS011;6855;48.112;11.298;2023-04-06T02:46:14;7.73;;;4.50;;
13566;SDS011;6855;48.112;11.298;2023-04-06T02:48:42;7.00;;;4.60;;
13566;SDS011;6855;48.112;11.298;2023-04-06T02:51:10;6.43;;;4.20;;
13566;SDS011;6855;48.112;11.298;2023-04-06T02:53:41;7.60;;;4.80;;
13566;SDS011;6855;48.112;11.298;2023-04-06T02:56:08;6.40;;;4.10;;
13566;SDS011;6855;48.112;11.298;2023-04-06T02:58:36;8.27;;;5.40;;
13566;SDS011;6855;48.112;11.298;2023-04-06T03:01:03;6.23;;;4.43;;
13566;SDS011;6855;48.112;11.298;2023-04-06T03:03:30;9.07;;;4.77;;
13566;SDS011;6855;48.112;11.298;2023-04-06T03:05:59;9.30;;;4.30;;
13566;SDS011;6855;48.112;11.298;2023-04-06T03:08:31;5.17;;;3.90;;
13566;SDS011;6855;48.112;11.298;2023-04-06T03:10:58;10.00;;;4.13;;
13566;SDS011;6855;48.112;11.298;2023-04-06T03:13:26;6.17;;;4.13;;
13566;SDS011;6855;48.112;11.298;2023-04-06T03:15:53;7.43;;;4.10;;
13566;SDS011;6855;48.112;11.298;2023-04-06T03:18:21;7.50;;;4.30;;
13566;SDS011;6855;48.112;11.298;2023-04-06T03:20:48;6.33;;;4.10;;
13566;SDS011;6855;48.112;11.298;2023-04-06T03:23:17;7.70;;;4.47;;
13566;SDS011;6855;48.112;11.298;2023-04-06T03:25:46;7.60;;;4.10;;
13566;SDS011;6855;48.112;11.298;2023-04-06T03:28:15;5.97;;;4.53;;
13566;SDS011;6855;48.112;11.298;2023-04-06T03:30:42;7.60;;;4.77;;
13566;SDS011;6855;48.112;11.298;2023-04-06T03:33:09;6.93;;;4.70;;
13566;SDS011;6855;48.112;11.298;2023-04-06T03:35:37;6.83;;;4.60;;
13566;SDS011;6855;48.112;11.298;2023-04-06T03:38:04;8.20;;;4.83;;
13566;SDS011;6855;48.112;11.298;2023-04-06T03:40:33;9.73;;;4.37;;
13566;SDS011;6855;48.112;11.298;2023-04-06T03:43:00;6.70;;;5.20;;
13566;SDS011;6855;48.112;11.298;2023-04-06T03:45:27;7.60;;;4.33;;
13566;SDS011;6855;48.112;11.298;2023-04-06T03:47:55;11.07;;;4.70;;
13566;SDS011;6855;48.112;11.298;2023-04-06T03:50:23;10.00;;;5.13;;
13566;SDS011;6855;48.112;11.298;2023-04-06T03:52:51;8.03;;;4.57;;
13566;SDS011;6855;48.112;11.298;2023-04-06T03:55:18;9.10;;;5.00;;
13566;SDS011;6855;48.112;11.298;2023-04-06T03:57:46;8.03;;;4.33;;
13566;SDS011;6855;48.112;11.298;2023-04-06T04:00:14;7.03;;;5.20;;
13566;SDS011;6855;48.112;11.298;2023-04-06T04:02:42;10.73;;;5.40;;
13566;SDS011;6855;48.112;11.298;2023-04-06T04:05:09;8.80;;;4.60;;
13566;SDS011;6855;48.112;11.298;2023-04-06T04:07:36;14.73;;;4.90;;
13566;SDS011;6855;48.112;11.298;2023-04-06T04:10:04;9.33;;;5.10;;
13566;SDS011;6855;48.112;11.298;2023-04-06T04:12:31;7.87;;;5.50;;
13566;SDS011;6855;48.112;11.298;2023-04-06T04:15:00;4.97;;;4.20;;
13566;SDS011;6855;48.112;11.298;2023-04-06T04:17:28;8.80;;;5.67;;
13566;SDS011;6855;48.112;11.298;2023-04-06T04:19:55;14.93;;;5.67;;
13566;SDS011;6855;48.112;11.298;2023-04-06T04:22:22;10.50;;;5.60;;
13566;SDS011;6855;48.112;11.298;2023-04-06T04:24:50;8.27;;;5.28;;
13566;SDS011;6855;48.112;11.298;2023-04-06T04:27:17;10.63;;;5.60;;
13566;SDS011;6855;48.112;11.298;2023-04-06T04:29:44;8.20;;;5.80;;
13566;SDS011;6855;48.112;11.298;2023-04-06T04:32:16;9.53;;;5.10;;
13566;SDS011;6855;48.112;11.298;2023-04-06T04:34:43;9.97;;;6.10;;
13566;SDS011;6855;48.112;11.298;2023-04-06T04:37:11;10.60;;;5.17;;
13566;SDS011;6855;48.112;11.298;2023-04-06T04:39:38;14.30;;;6.23;;
13566;SDS011;6855;48.112;11.298;2023-04-06T04:42:05;12.67;;;5.47;;
13566;SDS011;6855;48.112;11.298;2023-04-06T04:44:34;14.40;;;6.83;;
13566;SDS011;6855;48.112;11.298;2023-04-06T04:47:01;9.63;;;5.80;;
13566;SDS011;6855;48.112;11.298;2023-04-06T04:49:30;12.90;;;5.77;;
13566;SDS011;6855;48.112;11.298;2023-04-06T04:51:57;17.57;;;5.67;;
13566;SDS011;6855;48.112;11.298;2023-04-06T04:54:28;9.07;;;5.10;;
13566;SDS011;6855;48.112;11.298;2023-04-06T04:56:55;10.43;;;5.57;;
13566;SDS011;6855;48.112;11.298;2023-04-06T04:59:22;9.83;;;5.50;;
13566;SDS011;6855;48.112;11.298;2023-04-06T05:01:49;11.75;;;5.85;;
13566;SDS011;6855;48.112;11.298;2023-04-06T05:04:17;12.90;;;7.03;;
13566;SDS011;6855;48.112;11.298;2023-04-06T05:06:46;10.63;;;5.50;;
13566;SDS011;6855;48.112;11.298;2023-04-06T05:09:13;14.53;;;5.70;;
13566;SDS011;6855;48.112;11.298;2023-04-06T05:11:41;14.13;;;6.47;;
13566;SDS011;6855;48.112;11.298;2023-04-06T05:14:08;11.77;;;5.70;;
13566;SDS011;6855;48.112;11.298;2023-04-06T05:16:36;9.07;;;5.47;;
13566;SDS011;6855;48.112;11.298;2023-04-06T05:19:03;10.33;;;5.90;;
13566;SDS011;6855;48.112;11.298;2023-04-06T05:21:30;9.43;;;5.60;;
13566;SDS011;6855;48.112;11.298;2023-04-06T05:23:59;9.03;;;4.83;;
13566;SDS011;6855;48.112;11.298;2023-04-06T05:26:27;7.27;;;5.03;;
13566;SDS011;6855;48.112;11.298;2023-04-06T05:28:55;9.03;;;5.27;;
13566;SDS011;6855;48.112;11.298;2023-04-06T05:31:22;11.03;;;5.80;;
13566;SDS011;6855;48.112;11.298;2023-04-06T05:33:49;9.10;;;5.20;;
13566;SDS011;6855;48.112;11.298;2023-04-06T05:36:17;8.37;;;5.77;;
13566;SDS011;6855;48.112;11.298;2023-04-06T05:38:44;13.67;;;5.30;;
13566;SDS011;6855;48.112;11.298;2023-04-06T05:41:13;7.83;;;5.40;;
13566;SDS011;6855;48.112;11.298;2023-04-06T05:43:40;13.23;;;5.83;;
13566;SDS011;6855;48.112;11.298;2023-04-06T05:46:08;11.10;;;5.90;;
13566;SDS011;6855;48.112;11.298;2023-04-06T05:48:35;11.30;;;6.90;;
13566;SDS011;6855;48.112;11.298;2023-04-06T05:51:02;13.80;;;5.33;;
13566;SDS011;6855;48.112;11.298;2023-04-06T05:53:31;11.03;;;5.40;;
13566;SDS011;6855;48.112;11.298;2023-04-06T05:56:00;12.70;;;6.33;;
13566;SDS011;6855;48.112;11.298;2023-04-06T05:58:29;13.30;;;6.17;;
13566;SDS011;6855;48.112;11.298;2023-04-06T06:00:56;12.50;;;5.93;;
13566;SDS011;6855;48.112;11.298;2023-04-06T06:03:23;10.37;;;6.13;;
13566;SDS011;6855;48.112;11.298;2023-04-06T06:05:51;10.90;;;5.60;;
13566;SDS011;6855;48.112;11.298;2023-04-06T06:08:18;8.43;;;5.90;;
13566;SDS011;6855;48.112;11.298;2023-04-06T06:10:45;12.50;;;6.00;;
13566;SDS011;6855;48.112;11.298;2023-04-06T06:13:13;9.23;;;5.90;;
13566;SDS011;6855;48.112;11.298;2023-04-06T06:15:41;13.23;;;6.47;;
13566;SDS011;6855;48.112;11.298;2023-04-06T06:18:09;10.30;;;6.40;;
13566;SDS011;6855;48.112;11.298;2023-04-06T06:20:36;18.83;;;6.57;;
13566;SDS011;6855;48.112;11.298;2023-04-06T06:23:03;8.93;;;5.90;;
13566;SDS011;6855;48.112;11.298;2023-04-06T06:25:30;12.23;;;6.80;;
13566;SDS011;6855;48.112;11.298;2023-04-06T06:27:58;11.40;;;6.90;;
13566;SDS011;6855;48.112;11.298;2023-04-06T06:30:25;12.97;;;6.90;;
13566;SDS011;6855;48.112;11.298;2023-04-06T06:32:54;13.30;;;6.63;;
13566;SDS011;6855;48.112;11.298;2023-04-06T06:35:21;17.07;;;6.33;;
13566;SDS011;6855;48.112;11.298;2023-04-06T06:37:48;9.10;;;6.20;;
13566;SDS011;6855;48.112;11.298;2023-04-06T06:40:16;17.70;;;7.00;;
13566;SDS011;6855;48.112;11.298;2023-04-06T06:42:43;20.77;;;6.20;;
13566;SDS011;6855;48.112;11.298;2023-04-06T06:45:10;13.50;;;6.43;;
13566;SDS011;6855;48.112;11.298;2023-04-06T06:47:37;7.47;;;5.23;;
13566;SDS011;6855;48.112;11.298;2023-04-06T06:50:08;17.30;;;5.37;;
13566;SDS011;6855;48.112;11.298;2023-04-06T06:52:35;14.10;;;5.80;;
13566;SDS011;6855;48.112;11.298;2023-04-06T06:55:02;12.10;;;5.07;;
13566;SDS011;6855;48.112;11.298;2023-04-06T06:57:30;10.90;;;5.27;;
13566;SDS011;6855;48.112;11.298;2023-04-06T06:59:57;8.73;;;5.43;;
13566;SDS011;6855;48.112;11.298;2023-04-06T07:02:25;10.80;;;5.47;;
13566;SDS011;6855;48.112;11.298;2023-04-06T07:04:52;7.03;;;4.47;;
13566;SDS011;6855;48.112;11.298;2023-04-06T07:07:21;6.73;;;4.93;;
13566;SDS011;6855;48.112;11.298;2023-04-06T07:09:48;4.83;;;3.93;;
13566;SDS011;6855;48.112;11.298;2023-04-06T07:12:15;7.60;;;4.37;;
13566;SDS011;6855;48.112;11.298;2023-04-06T07:14:43;7.80;;;4.63;;
13566;SDS011;6855;48.112;11.298;2023-04-06T07:17:10;6.83;;;4.57;;
13566;SDS011;6855;48.112;11.298;2023-04-06T07:19:37;5.30;;;4.00;;
13566;SDS011;6855;48.112;11.298;2023-04-06T07:22:04;8.50;;;3.97;;
13566;SDS011;6855;48.112;11.298;2023-04-06T07:24:33;8.07;;;3.93;;
13566;SDS011;6855;48.112;11.298;2023-04-06T07:27:00;7.60;;;4.90;;
13566;SDS011;6855;48.112;11.298;2023-04-06T07:29:28;6.30;;;4.60;;
13566;SDS011;6855;48.112;11.298;2023-04-06T07:31:55;6.43;;;4.10;;
13566;SDS011;6855;48.112;11.298;2023-04-06T07:34:22;5.77;;;3.70;;
13566;SDS011;6855;48.112;11.298;2023-04-06T07:36:50;5.53;;;4.10;;
13566;SDS011;6855;48.112;11.298;2023-04-06T07:39:18;6.37;;;4.43;;
13566;SDS011;6855;48.112;11.298;2023-04-06T07:41:47;4.73;;;4.30;;
13566;SDS011;6855;48.112;11.298;2023-04-06T07:44:14;9.30;;;4.23;;
13566;SDS011;6855;48.112;11.298;2023-04-06T07:46:42;6.73;;;4.00;;
13566;SDS011;6855;48.112;11.298;2023-04-06T07:49:09;6.40;;;4.63;;
13566;SDS011;6855;48.112;11.298;2023-04-06T07:51:37;8.10;;;4.70;;
13566;SDS011;6855;48.112;11.298;2023-04-06T07:54:05;8.20;;;5.47;;
13566;SDS011;6855;48.112;11.298;2023-04-06T07:56:32;8.17;;;5.40;;
13566;SDS011;6855;48.112;11.298;2023-04-06T07:59:01;9.50;;;6.30;;
13566;SDS011;6855;48.112;11.298;2023-04-06T08:01:28;10.03;;;5.90;;
13566;SDS011;6855;48.112;11.298;2023-04-06T08:03:56;5.80;;;5.20;;
13566;SDS011;6855;48.112;11.298;2023-04-06T08:06:23;7.73;;;6.20;;
13566;SDS011;6855;48.112;11.298;2023-04-06T08:08:51;8.33;;;6.20;;
13566;SDS011;6855;48.112;11.298;2023-04-06T08:11:18;8.23;;;6.20;;
13566;SDS011;6855;48.112;11.298;2023-04-06T08:13:46;8.70;;;6.90;;
13566;SDS011;6855;48.112;11.298;2023-04-06T08:16:16;11.07;;;6.97;;
13566;SDS011;6855;48.112;11.298;2023-04-06T08:18:43;8.67;;;6.77;;
13566;SDS011;6855;48.112;11.298;2023-04-06T08:21:10;8.30;;;6.50;;
13566;SDS011;6855;48.112;11.298;2023-04-06T08:23:37;7.00;;;6.13;;
13566;SDS011;6855;48.112;11.298;2023-04-06T08:26:05;7.50;;;6.57;;
13566;SDS011;6855;48.112;11.298;2023-04-06T08:28:32;7.23;;;6.37;;
13566;SDS011;6855;48.112;11.298;2023-04-06T08:31:02;12.23;;;6.23;;
13566;SDS011;6855;48.112;11.298;2023-04-06T08:33:31;8.03;;;5.93;;
13566;SDS011;6855;48.112;11.298;2023-04-06T08:36:06;7.50;;;6.20;;
13566;SDS011;6855;48.112;11.298;2023-04-06T08:38:33;7.20;;;6.23;;
13566;SDS011;6855;48.112;11.298;2023-04-06T08:41:05;9.10;;;7.00;;
13566;SDS011;6855;48.112;11.298;2023-04-06T08:43:33;8.30;;;6.50;;
13566;SDS011;6855;48.112;11.298;2023-04-06T08:46:02;10.93;;;6.97;;
13566;SDS011;6855;48.112;11.298;2023-04-06T08:48:30;8.23;;;5.77;;
13566;SDS011;6855;48.112;11.298;2023-04-06T08:50:58;9.63;;;6.90;;
13566;SDS011;6855;48.112;11.298;2023-04-06T08:53:26;7.97;;;6.87;;
13566;SDS011;6855;48.112;11.298;2023-04-06T08:55:53;8.03;;;6.10;;
13566;SDS011;6855;48.112;11.298;2023-04-06T08:58:21;8.30;;;6.33;;
13566;SDS011;6855;48.112;11.298;2023-04-06T09:00:48;7.07;;;6.03;;
13566;SDS011;6855;48.112;11.298;2023-04-06T09:03:16;7.73;;;6.20;;
13566;SDS011;6855;48.112;11.298;2023-04-06T09:05:43;7.87;;;6.23;;
13566;SDS011;6855;48.112;11.298;2023-04-06T09:08:13;6.40;;;5.57;;
13566;SDS011;6855;48.112;11.298;2023-04-06T09:10:40;6.80;;;6.10;;
13566;SDS011;6855;48.112;11.298;2023-04-06T09:13:08;9.20;;;6.07;;
13566;SDS011;6855;48.112;11.298;2023-04-06T09:15:35;9.20;;;6.03;;
13566;SDS011;6855;48.112;11.298;2023-04-06T09:18:03;7.90;;;6.40;;
13566;SDS011;6855;48.112;11.298;2023-04-06T09:20:30;7.40;;;6.33;;
13566;SDS011;6855;48.112;11.298;2023-04-06T09:22:57;8.90;;;7.00;;
13566;SDS011;6855;48.112;11.298;2023-04-06T09:25:26;9.00;;;6.10;;
13566;SDS011;6855;48.112;11.298;2023-04-06T09:28:00;6.43;;;5.50;;
13566;SDS011;6855;48.112;11.298;2023-04-06T09:30:27;8.97;;;6.73;;
13566;SDS011;6855;48.112;11.298;2023-04-06T09:32:55;6.87;;;6.17;;
13566;SDS011;6855;48.112;11.298;2023-04-06T09:35:24;9.37;;;6.57;;
13566;SDS011;6855;48.112;11.298;2023-04-06T09:37:52;9.67;;;5.80;;
13566;SDS011;6855;48.112;11.298;2023-04-06T09:40:20;6.20;;;5.60;;
13566;SDS011;6855;48.112;11.298;2023-04-06T09:42:49;8.37;;;5.80;;
13566;SDS011;6855;48.112;11.298;2023-04-06T09:45:19;6.70;;;6.00;;
13566;SDS011;6855;48.112;11.298;2023-04-06T09:47:46;7.20;;;6.20;;
13566;SDS011;6855;48.112;11.298;2023-04-06T09:50:14;7.10;;;5.93;;
13566;SDS011;6855;48.112;11.298;2023-04-06T09:52:43;13.03;;;7.07;;
13566;SDS011;6855;48.112;11.298;2023-04-06T09:55:15;5.83;;;5.23;;
13566;SDS011;6855;48.112;11.298;2023-04-06T09:57:45;6.33;;;5.57;;
13566;SDS011;6855;48.112;11.298;2023-04-06T10:00:19;8.30;;;5.63;;
13566;SDS011;6855;48.112;11.298;2023-04-06T10:02:50;11.30;;;6.80;;
13566;SDS011;6855;48.112;11.298;2023-04-06T10:05:19;6.40;;;5.80;;
13566;SDS011;6855;48.112;11.298;2023-04-06T10:07:47;8.43;;;5.47;;
13566;SDS011;6855;48.112;11.298;2023-04-06T10:10:15;6.73;;;6.00;;
13566;SDS011;6855;48.112;11.298;2023-04-06T10:12:43;6.57;;;5.70;;
13566;SDS011;6855;48.112;11.298;2023-04-06T10:15:13;7.57;;;5.97;;
13566;SDS011;6855;48.112;11.298;2023-04-06T10:17:42;6.73;;;6.03;;
13566;SDS011;6855;48.112;11.298;2023-04-06T10:20:10;9.23;;;6.50;;
13566;SDS011;6855;48.112;11.298;2023-04-06T10:22:41;7.53;;;6.57;;
13566;SDS011;6855;48.112;11.298;2023-04-06T10:25:10;7.07;;;6.37;;
13566;SDS011;6855;48.112;11.298;2023-04-06T10:27:37;8.07;;;5.63;;
13566;SDS011;6855;48.112;11.298;2023-04-06T10:30:05;5.47;;;4.93;;
13566;SDS011;6855;48.112;11.298;2023-04-06T10:32:33;11.47;;;5.47;;
13566;SDS011;6855;48.112;11.298;2023-04-06T10:35:10;9.33;;;5.50;;
13566;SDS011;6855;48.112;11.298;2023-04-06T10:37:49;6.10;;;5.50;;
13566;SDS011;6855;48.112;11.298;2023-04-06T10:40:20;9.50;;;5.87;;
13566;SDS011;6855;48.112;11.298;2023-04-06T10:42:48;4.47;;;4.07;;
13566;SDS011;6855;48.112;11.298;2023-04-06T10:45:19;4.80;;;4.23;;
13566;SDS011;6855;48.112;11.298;2023-04-06T10:47:46;5.30;;;4.80;;
13566;SDS011;6855;48.112;11.298;2023-04-06T10:50:15;5.10;;;3.60;;
13566;SDS011;6855;48.112;11.298;2023-04-06T10:52:43;4.73;;;4.30;;
13566;SDS011;6855;48.112;11.298;2023-04-06T10:55:11;6.43;;;5.07;;
13566;SDS011;6855;48.112;11.298;2023-04-06T10:57:39;6.77;;;4.90;;
13566;SDS011;6855;48.112;11.298;2023-04-06T11:00:07;6.90;;;5.73;;
13566;SDS011;6855;48.112;11.298;2023-04-06T11:02:35;6.30;;;5.70;;
13566;SDS011;6855;48.112;11.298;2023-04-06T11:05:03;8.77;;;4.83;;
13566;SDS011;6855;48.112;11.298;2023-04-06T11:07:32;6.47;;;5.30;;
13566;SDS011;6855;48.112;11.298;2023-04-06T11:10:00;6.50;;;5.20;;
13566;SDS011;6855;48.112;11.298;2023-04-06T11:12:27;7.17;;;5.90;;
13566;SDS011;6855;48.112;11.298;2023-04-06T11:14:56;6.87;;;5.47;;
13566;SDS011;6855;48.112;11.298;2023-04-06T11:17:27;9.30;;;6.10;;
13566;SDS011;6855;48.112;11.298;2023-04-06T11:19:55;5.73;;;5.13;;
13566;SDS011;6855;48.112;11.298;2023-04-06T11:22:22;8.10;;;5.97;;
13566;SDS011;6855;48.112;11.298;2023-04-06T11:24:51;9.53;;;5.63;;
13566;SDS011;6855;48.112;11.298;2023-04-06T11:27:18;17.67;;;6.93;;
13566;SDS011;6855;48.112;11.298;2023-04-06T11:29:47;7.50;;;5.93;;
13566;SDS011;6855;48.112;11.298;2023-04-06T11:32:19;7.43;;;5.80;;
13566;SDS011;6855;48.112;11.298;2023-04-06T11:34:47;8.80;;;5.50;;
13566;SDS011;6855;48.112;11.298;2023-04-06T11:37:15;8.30;;;5.87;;
13566;SDS011;6855;48.112;11.298;2023-04-06T11:39:43;11.23;;;6.17;;
13566;SDS011;6855;48.112;11.298;2023-04-06T11:42:12;5.43;;;4.93;;
13566;SDS011;6855;48.112;11.298;2023-04-06T11:44:39;6.70;;;5.90;;
13566;SDS011;6855;48.112;11.298;2023-04-06T11:47:08;6.70;;;5.87;;
13566;SDS011;6855;48.112;11.298;2023-04-06T11:49:36;6.03;;;5.33;;
13566;SDS011;6855;48.112;11.298;2023-04-06T11:52:14;10.17;;;5.67;;
13566;SDS011;6855;48.112;11.298;2023-04-06T11:54:41;7.60;;;5.83;;
13566;SDS011;6855;48.112;11.298;2023-04-06T11:57:08;8.33;;;5.87;;
13566;SDS011;6855;48.112;11.298;2023-04-06T11:59:37;6.67;;;5.50;;
13566;SDS011;6855;48.112;11.298;2023-04-06T12:02:04;7.33;;;5.80;;
13566;SDS011;6855;48.112;11.298;2023-04-06T12:04:31;6.30;;;5.07;;
13566;SDS011;6855;48.112;11.298;2023-04-06T12:06:59;5.70;;;4.80;;
13566;SDS011;6855;48.112;11.298;2023-04-06T12:09:26;8.30;;;6.33;;
13566;SDS011;6855;48.112;11.298;2023-04-06T12:11:54;8.37;;;6.10;;
13566;SDS011;6855;48.112;11.298;2023-04-06T12:14:22;7.10;;;5.70;;
13566;SDS011;6855;48.112;11.298;2023-04-06T12:16:50;5.80;;;5.07;;
13566;SDS011;6855;48.112;11.298;2023-04-06T12:19:21;6.33;;;5.70;;
13566;SDS011;6855;48.112;11.298;2023-04-06T12:21:50;7.30;;;6.50;;
13566;SDS011;6855;48.112;11.298;2023-04-06T12:24:18;6.13;;;5.30;;
13566;SDS011;6855;48.112;11.298;2023-04-06T12:26:45;7.40;;;5.90;;
13566;SDS011;6855;48.112;11.298;2023-04-06T12:29:13;6.67;;;5.10;;
13566;SDS011;6855;48.112;11.298;2023-04-06T12:31:40;6.73;;;5.30;;
13566;SDS011;6855;48.112;11.298;2023-04-06T12:34:10;5.93;;;5.23;;
13566;SDS011;6855;48.112;11.298;2023-04-06T12:36:38;7.57;;;5.37;;
13566;SDS011;6855;48.112;11.298;2023-04-06T12:39:05;7.00;;;5.70;;
13566;SDS011;6855;48.112;11.298;2023-04-06T12:41:33;5.87;;;4.93;;
13566;SDS011;6855;48.112;11.298;2023-04-06T12:44:00;5.50;;;4.90;;
13566;SDS011;6855;48.112;11.298;2023-04-06T12:46:28;7.90;;;5.33;;
13566;SDS011;6855;48.112;11.298;2023-04-06T12:48:56;5.50;;;4.90;;
13566;SDS011;6855;48.112;11.298;2023-04-06T12:51:26;4.90;;;4.40;;
13566;SDS011;6855;48.112;11.298;2023-04-06T12:53:54;5.83;;;4.67;;
13566;SDS011;6855;48.112;11.298;2023-04-06T12:56:21;6.60;;;4.17;;
13566;SDS011;6855;48.112;11.298;2023-04-06T12:58:49;6.37;;;4.50;;
13566;SDS011;6855;48.112;11.298;2023-04-06T13:01:17;4.50;;;4.10;;
13566;SDS011;6855;48.112;11.298;2023-04-06T13:03:45;9.90;;;5.37;;
13566;SDS011;6855;48.112;11.298;2023-04-06T13:06:12;9.93;;;4.80;;
13566;SDS011;6855;48.112;11.298;2023-04-06T13:08:41;5.83;;;4.93;;
13566;SDS011;6855;48.112;11.298;2023-04-06T13:11:09;5.00;;;4.50;;
13566;SDS011;6855;48.112;11.298;2023-04-06T13:13:36;4.60;;;4.20;;
13566;SDS011;6855;48.112;11.298;2023-04-06T13:16:04;6.40;;;4.57;;
13566;SDS011;6855;48.112;11.298;2023-04-06T13:18:32;5.40;;;3.70;;
13566;SDS011;6855;48.112;11.298;2023-04-06T13:21:00;6.50;;;4.80;;
13566;SDS011;6855;48.112;11.298;2023-04-06T13:23:28;6.40;;;4.63;;
13566;SDS011;6855;48.112;11.298;2023-04-06T13:26:00;4.20;;;3.90;;
13566;SDS011;6855;48.112;11.298;2023-04-06T13:28:28;4.83;;;3.77;;
13566;SDS011;6855;48.112;11.298;2023-04-06T13:30:57;4.70;;;4.30;;
13566;SDS011;6855;48.112;11.298;2023-04-06T13:33:25;5.63;;;4.63;;
13566;SDS011;6855;48.112;11.298;2023-04-06T13:35:52;6.07;;;4.50;;
13566;SDS011;6855;48.112;11.298;2023-04-06T13:38:25;5.07;;;4.30;;
13566;SDS011;6855;48.112;11.298;2023-04-06T13:40:53;5.10;;;4.60;;
13566;SDS011;6855;48.112;11.298;2023-04-06T13:43:22;6.53;;;4.50;;
13566;SDS011;6855;48.112;11.298;2023-04-06T13:45:51;8.90;;;4.67;;
13566;SDS011;6855;48.112;11.298;2023-04-06T13:48:20;5.50;;;4.80;;
13566;SDS011;6855;48.112;11.298;2023-04-06T13:50:47;4.80;;;4.40;;
13566;SDS011;6855;48.112;11.298;2023-04-06T13:53:15;8.20;;;5.30;;
13566;SDS011;6855;48.112;11.298;2023-04-06T13:55:42;4.60;;;4.20;;
13566;SDS011;6855;48.112;11.298;2023-04-06T13:58:10;5.53;;;4.83;;
13566;SDS011;6855;48.112;11.298;2023-04-06T14:00:39;5.77;;;3.80;;
13566;SDS011;6855;48.112;11.298;2023-04-06T14:03:07;4.93;;;4.50;;
13566;SDS011;6855;48.112;11.298;2023-04-06T14:05:35;6.63;;;4.10;;
13566;SDS011;6855;48.112;11.298;2023-04-06T14:08:02;6.93;;;4.23;;
13566;SDS011;6855;48.112;11.298;2023-04-06T14:10:31;4.60;;;3.60;;
13566;SDS011;6855;48.112;11.298;2023-04-06T14:12:59;7.60;;;3.70;;
13566;SDS011;6855;48.112;11.298;2023-04-06T14:15:29;5.87;;;4.57;;
13566;SDS011;6855;48.112;11.298;2023-04-06T14:18:00;8.10;;;3.50;;
13566;SDS011;6855;48.112;11.298;2023-04-06T14:20:32;3.70;;;3.27;;
13566;SDS011;6855;48.112;11.298;2023-04-06T14:23:00;7.30;;;4.17;;
13566;SDS011;6855;48.112;11.298;2023-04-06T14:25:28;4.23;;;3.83;;
13566;SDS011;6855;48.112;11.298;2023-04-06T14:27:57;4.30;;;3.90;;
13566;SDS011;6855;48.112;11.298;2023-04-06T14:30:29;3.83;;;3.53;;
13566;SDS011;6855;48.112;11.298;2023-04-06T14:32:56;5.93;;;3.90;;
13566;SDS011;6855;48.112;11.298;2023-04-06T14:35:26;4.70;;;3.83;;
13566;SDS011;6855;48.112;11.298;2023-04-06T14:37:53;4.43;;;4.00;;
13566;SDS011;6855;48.112;11.298;2023-04-06T14:40:21;5.80;;;4.70;;
13566;SDS011;6855;48.112;11.298;2023-04-06T14:42:49;4.83;;;3.60;;
13566;SDS011;6855;48.112;11.298;2023-04-06T14:45:18;4.60;;;3.43;;
13566;SDS011;6855;48.112;11.298;2023-04-06T14:47:46;8.40;;;3.47;;
13566;SDS011;6855;48.112;11.298;2023-04-06T14:50:13;6.37;;;3.83;;